createdAt,value
2018-12-05T00:00:38.270Z,3.00
2018-12-05T00:04:41.027Z,3.00
2018-12-05T00:08:45.756Z,3.00
2018-12-05T00:12:48.459Z,3.00
2018-12-05T00:16:51.252Z,2.90
2018-12-05T00:20:54.055Z,2.90
2018-12-05T00:24:56.754Z,2.90
2018-12-05T00:29:00.532Z,2.90
2018-12-05T00:33:03.997Z,2.90
2018-12-05T00:37:06.782Z,2.90
2018-12-05T00:41:09.656Z,2.90
2018-12-05T00:45:12.629Z,2.90
2018-12-05T00:49:15.357Z,2.80
2018-12-05T00:53:18.180Z,2.80
2018-12-05T00:57:20.988Z,2.70
2018-12-05T01:01:24.998Z,2.70
2018-12-05T01:05:31.462Z,2.70
2018-12-05T01:09:36.257Z,2.60
2018-12-05T01:13:39.028Z,2.60
2018-12-05T01:17:41.716Z,2.50
2018-12-05T01:21:44.524Z,2.50
2018-12-05T01:25:47.243Z,2.40
2018-12-05T01:29:49.951Z,2.40
2018-12-05T01:33:52.701Z,2.40
2018-12-05T01:37:55.489Z,2.30
2018-12-05T01:41:58.242Z,2.30
2018-12-05T01:46:00.985Z,2.20
2018-12-05T01:50:04.079Z,2.20
2018-12-05T01:54:06.960Z,2.20
2018-12-05T01:58:09.650Z,2.20
2018-12-05T02:02:12.422Z,2.20
2018-12-05T02:06:15.323Z,2.10
2018-12-05T02:10:18.102Z,2.10
2018-12-05T02:14:20.847Z,2.10
2018-12-05T02:18:23.716Z,2.00
2018-12-05T02:22:26.455Z,2.00
2018-12-05T02:26:29.161Z,1.90
2018-12-05T02:30:31.891Z,1.90
2018-12-05T02:34:34.600Z,1.90
2018-12-05T02:38:37.354Z,1.90
2018-12-05T02:42:40.104Z,1.90
2018-12-05T02:46:42.869Z,1.90
2018-12-05T02:50:45.603Z,1.90
2018-12-05T02:54:48.290Z,1.90
2018-12-05T02:58:51.001Z,1.90
2018-12-05T03:02:53.694Z,1.80
2018-12-05T03:06:56.410Z,1.80
2018-12-05T03:10:59.206Z,1.80
2018-12-05T03:15:01.901Z,1.80
2018-12-05T03:19:04.682Z,1.80
2018-12-05T03:23:07.429Z,1.80
2018-12-05T03:27:10.201Z,1.80
2018-12-05T03:31:12.894Z,1.80
2018-12-05T03:35:18.730Z,1.70
2018-12-05T03:39:21.805Z,1.70
2018-12-05T03:43:24.550Z,1.70
2018-12-05T03:47:27.329Z,1.60
2018-12-05T03:51:30.031Z,1.60
2018-12-05T03:55:32.783Z,1.60
2018-12-05T03:59:35.568Z,1.50
2018-12-05T04:03:38.319Z,1.50
2018-12-05T04:07:41.138Z,1.50
2018-12-05T04:11:43.873Z,1.50
2018-12-05T04:15:46.541Z,1.50
2018-12-05T04:23:56.352Z,1.40
2018-12-05T04:27:59.089Z,1.40
2018-12-05T04:32:01.797Z,1.40
2018-12-05T04:36:04.573Z,1.40
2018-12-05T04:40:07.519Z,1.30
2018-12-05T04:44:10.242Z,1.80
2018-12-05T04:48:12.953Z,1.30
2018-12-05T04:52:15.760Z,1.30
2018-12-05T04:56:18.514Z,1.30
2018-12-05T05:00:21.239Z,1.30
2018-12-05T05:04:24.005Z,1.30
2018-12-05T05:08:26.731Z,1.30
2018-12-05T05:12:29.439Z,1.30
2018-12-05T05:16:32.155Z,1.30
2018-12-05T05:20:34.978Z,1.30
2018-12-05T05:24:37.716Z,1.20
2018-12-05T05:28:40.621Z,1.20
2018-12-05T08:22:34.242Z,1.30
2018-12-05T08:26:37.121Z,1.30
2018-12-05T08:30:39.990Z,1.40
2018-12-05T08:34:42.664Z,1.50
2018-12-05T08:38:45.423Z,1.60
2018-12-05T08:42:48.258Z,1.70
2018-12-05T08:46:51.037Z,1.80
2018-12-05T08:50:53.966Z,1.90
2018-12-05T08:54:56.755Z,2.10
2018-12-05T08:58:59.700Z,2.50
2018-12-05T09:03:02.545Z,2.90
2018-12-05T09:07:06.072Z,3.40
2018-12-05T09:11:08.873Z,3.80
2018-12-05T09:15:11.669Z,4.20
2018-12-05T09:19:14.490Z,4.40
2018-12-05T09:23:17.466Z,4.60
2018-12-05T09:27:20.561Z,4.70
2018-12-05T09:31:23.547Z,4.80
2018-12-05T09:35:26.493Z,4.90
2018-12-05T09:39:29.353Z,4.90
2018-12-05T09:43:32.158Z,5.00
2018-12-05T09:47:35.037Z,5.20
2018-12-05T09:51:38.324Z,5.20
2018-12-05T09:55:41.123Z,5.30
2018-12-05T09:59:43.970Z,5.40
2018-12-05T10:03:46.827Z,5.40
2018-12-05T10:07:49.637Z,5.50
2018-12-05T10:11:52.407Z,5.50
2018-12-05T10:15:55.292Z,5.60
2018-12-05T10:19:58.191Z,5.60
2018-12-05T10:24:01.070Z,5.70
2018-12-05T10:28:04.107Z,5.70
2018-12-05T10:32:06.916Z,5.80
2018-12-05T10:36:09.810Z,5.90
2018-12-05T10:40:12.776Z,6.00
2018-12-05T10:44:15.619Z,6.00
2018-12-05T10:48:18.517Z,6.10
2018-12-05T10:52:21.341Z,6.30
2018-12-05T10:56:24.419Z,6.80
2018-12-05T11:00:32.828Z,7.20
2018-12-05T11:04:41.160Z,7.70
2018-12-05T11:08:49.216Z,8.10
2018-12-05T11:12:57.531Z,8.40
2018-12-05T11:18:03.305Z,8.80
2018-12-05T11:23:12.349Z,9.00
2018-12-05T11:27:15.889Z,9.30
2018-12-05T11:31:18.847Z,9.40
2018-12-05T11:35:21.930Z,9.40
2018-12-05T11:39:24.828Z,9.50
2018-12-05T11:43:27.695Z,9.50
2018-12-05T11:47:30.518Z,9.60
2018-12-05T11:51:33.425Z,9.70
2018-12-05T11:55:36.216Z,9.90
2018-12-05T11:59:39.043Z,10.10
2018-12-05T12:03:41.864Z,10.40
2018-12-05T12:07:45.160Z,10.70
2018-12-05T12:11:48.006Z,11.00
2018-12-05T12:15:50.949Z,11.30
2018-12-05T12:19:53.849Z,11.50
2018-12-05T12:23:56.682Z,11.60
2018-12-05T12:27:59.496Z,11.70
2018-12-05T12:32:02.259Z,11.60
2018-12-05T12:36:05.050Z,11.50
2018-12-05T12:40:07.962Z,11.40
2018-12-05T12:44:10.688Z,11.10
2018-12-05T12:48:13.559Z,10.80
2018-12-05T12:52:16.343Z,10.50
2018-12-05T12:56:19.343Z,10.30
2018-12-05T13:00:22.124Z,10.00
2018-12-05T13:04:24.957Z,9.80
2018-12-05T13:08:27.805Z,9.50
2018-12-05T13:12:34.963Z,9.30
2018-12-05T13:16:38.415Z,9.10
2018-12-05T13:20:41.425Z,9.00
2018-12-05T13:24:44.201Z,8.80
2018-12-05T13:28:46.983Z,8.60
2018-12-05T13:32:50.076Z,8.50
2018-12-05T13:36:52.939Z,8.40
2018-12-05T13:40:55.841Z,8.30
2018-12-05T13:44:58.632Z,8.20
2018-12-05T13:49:01.457Z,8.00
2018-12-05T13:53:05.220Z,8.00
2018-12-05T13:57:08.680Z,7.80
2018-12-05T14:01:12.841Z,7.80
2018-12-05T14:05:16.179Z,7.70
2018-12-05T14:09:18.986Z,7.60
2018-12-05T14:13:21.895Z,7.50
2018-12-05T14:17:24.859Z,7.40
2018-12-05T14:21:28.744Z,7.40
2018-12-05T14:25:31.598Z,7.30
2018-12-05T14:29:35.796Z,7.20
2018-12-05T14:33:39.854Z,7.20
2018-12-05T14:37:42.936Z,7.10
2018-12-05T14:41:46.369Z,7.10
2018-12-05T14:45:50.591Z,7.00
2018-12-05T14:49:54.254Z,7.00
2018-12-05T14:53:57.108Z,6.90
2018-12-05T14:58:00.150Z,6.90
2018-12-05T15:02:03.070Z,6.80
2018-12-05T15:06:05.872Z,6.70
2018-12-05T15:10:08.909Z,6.70
2018-12-05T15:14:11.713Z,6.60
2018-12-05T15:18:14.544Z,6.50
2018-12-05T15:22:17.399Z,6.50
2018-12-05T15:26:20.148Z,6.40
2018-12-05T15:30:22.936Z,6.40
2018-12-05T15:38:34.839Z,6.30
2018-12-05T15:42:37.598Z,6.20
2018-12-05T15:46:40.358Z,6.20
2018-12-05T15:50:43.173Z,6.10
2018-12-05T15:54:45.973Z,6.10
2018-12-05T15:58:48.973Z,6.10
2018-12-05T16:02:51.682Z,6.10
2018-12-05T16:06:54.364Z,6.10
2018-12-05T16:10:57.156Z,6.00
2018-12-05T16:14:59.911Z,6.00
2018-12-05T16:19:02.846Z,6.00
2018-12-05T16:23:05.615Z,6.00
2018-12-05T16:27:08.318Z,6.00
2018-12-05T16:31:11.063Z,6.00
2018-12-05T16:35:13.891Z,6.00
2018-12-05T16:39:16.612Z,6.00
2018-12-05T16:43:19.376Z,6.00
2018-12-05T16:47:22.088Z,5.90
2018-12-05T16:51:24.884Z,6.00
2018-12-05T16:55:27.626Z,6.00
2018-12-05T16:59:30.450Z,6.00
2018-12-05T17:03:33.289Z,6.00
2018-12-05T17:07:36.016Z,6.00
2018-12-05T17:11:38.768Z,6.00
2018-12-05T17:15:41.670Z,6.00
2018-12-05T17:19:46.237Z,6.00
2018-12-05T17:23:49.997Z,6.00
2018-12-05T17:27:52.680Z,6.00
2018-12-05T17:31:55.420Z,6.00
2018-12-05T17:35:58.247Z,6.00
2018-12-05T17:40:01.036Z,6.00
2018-12-05T17:44:04.019Z,6.00
2018-12-05T17:48:06.828Z,6.00
2018-12-05T17:52:09.602Z,6.00
2018-12-05T17:56:12.307Z,6.00
2018-12-05T18:00:15.117Z,6.00
2018-12-05T18:04:17.848Z,6.00
2018-12-05T18:08:20.544Z,6.00
2018-12-05T18:12:23.299Z,6.00
2018-12-05T18:16:26.020Z,6.00
2018-12-05T18:20:28.761Z,6.00
2018-12-05T18:24:31.563Z,6.10
2018-12-05T18:28:34.383Z,6.10
2018-12-05T18:32:37.209Z,6.10
2018-12-05T18:36:40.006Z,6.10
2018-12-05T18:40:42.725Z,6.10
2018-12-05T18:44:45.528Z,6.10
2018-12-05T18:48:48.236Z,6.10
2018-12-05T18:52:50.974Z,6.10
2018-12-05T18:56:53.694Z,6.10
2018-12-05T19:00:56.471Z,6.20
2018-12-05T19:04:59.238Z,6.20
2018-12-05T19:09:02.140Z,6.20
2018-12-05T19:13:05.206Z,6.20
2018-12-05T19:17:07.962Z,6.20
2018-12-05T19:21:10.730Z,6.20
2018-12-05T19:25:13.508Z,6.20
2018-12-05T19:29:16.194Z,6.30
2018-12-05T19:33:18.903Z,6.20
2018-12-05T19:37:21.752Z,6.20
2018-12-05T19:41:24.795Z,6.20
2018-12-05T19:45:27.531Z,6.20
2018-12-05T19:49:30.903Z,6.20
2018-12-05T19:53:33.641Z,6.20
2018-12-05T19:57:36.433Z,6.20
2018-12-05T20:01:39.171Z,6.20
2018-12-05T20:05:41.944Z,6.20
2018-12-05T20:09:44.817Z,6.20
2018-12-05T20:13:47.588Z,6.20
2018-12-05T20:17:51.774Z,6.20
2018-12-05T20:21:54.947Z,6.20
2018-12-05T20:25:57.693Z,6.20
2018-12-05T20:30:00.587Z,6.20
2018-12-05T20:34:03.540Z,6.20
2018-12-05T20:38:06.311Z,6.20
2018-12-05T20:42:09.247Z,6.20
2018-12-05T20:46:12.205Z,6.20
2018-12-05T20:50:15.025Z,6.20
2018-12-05T20:54:17.791Z,6.30
2018-12-05T20:58:20.703Z,6.30
2018-12-05T21:02:23.546Z,6.30
2018-12-05T21:06:26.459Z,6.30
2018-12-05T21:10:29.180Z,6.30
2018-12-05T21:14:32.076Z,6.30
2018-12-05T21:18:35.494Z,6.30
2018-12-05T21:22:38.221Z,6.30
2018-12-05T21:26:41.523Z,6.30
2018-12-05T21:30:44.381Z,6.30
2018-12-05T21:34:47.243Z,6.30
2018-12-05T21:38:50.421Z,6.30
2018-12-05T21:42:53.376Z,6.30
2018-12-05T21:46:56.137Z,6.40
2018-12-05T21:50:58.900Z,6.40
2018-12-05T21:55:01.689Z,6.30
2018-12-05T21:59:04.635Z,6.30
2018-12-05T22:03:07.395Z,6.40
2018-12-05T22:07:10.472Z,6.40
2018-12-05T22:11:13.262Z,6.40
2018-12-05T22:15:16.020Z,6.40
2018-12-05T22:19:18.842Z,6.30
2018-12-05T22:23:22.156Z,6.40
2018-12-05T22:27:24.954Z,6.30
2018-12-05T22:31:27.722Z,6.30
2018-12-05T22:35:30.516Z,6.40
2018-12-05T22:39:33.530Z,6.40
2018-12-05T22:43:36.508Z,6.40
2018-12-05T22:47:39.577Z,6.40
2018-12-05T22:51:42.489Z,6.40
2018-12-05T22:55:45.272Z,6.40
2018-12-05T22:59:48.102Z,6.40
2018-12-05T23:03:50.911Z,6.40
2018-12-05T23:07:53.678Z,6.40
2018-12-05T23:11:56.474Z,6.50
2018-12-05T23:16:00.097Z,6.50
2018-12-05T23:20:02.824Z,6.50
2018-12-05T23:24:05.678Z,6.50
2018-12-05T23:28:08.476Z,6.50
2018-12-05T23:32:11.308Z,6.50
2018-12-05T23:36:14.032Z,6.50
2018-12-05T23:40:16.785Z,6.50
2018-12-05T23:44:19.581Z,6.50
2018-12-05T23:48:22.257Z,6.50
2018-12-05T23:52:24.991Z,6.50
2018-12-05T23:56:27.696Z,6.60
